createdAt,value
2023-03-04T00:00:30.768Z,64.71
2023-03-04T00:02:58.587Z,64.71
2023-03-04T00:05:26.498Z,64.31
2023-03-04T00:07:54.280Z,64.87
2023-03-04T00:10:22.136Z,64.92
2023-03-04T00:12:49.911Z,64.40
2023-03-04T00:15:17.741Z,64.00
2023-03-04T00:17:46.620Z,65.16
2023-03-04T00:20:14.899Z,64.89
2023-03-04T00:22:42.721Z,65.53
2023-03-04T00:25:10.520Z,65.58
2023-03-04T00:27:38.289Z,65.97
2023-03-04T00:30:07.383Z,65.32
2023-03-04T00:32:35.202Z,64.84
2023-03-04T00:35:07.190Z,64.65
2023-03-04T00:37:35.240Z,64.13
2023-03-04T00:40:03.120Z,63.95
2023-03-04T00:42:30.935Z,64.12
2023-03-04T00:44:59.580Z,64.05
2023-03-04T00:47:27.328Z,64.80
2023-03-04T00:49:55.125Z,65.09
2023-03-04T00:52:22.958Z,64.84
2023-03-04T00:54:50.701Z,65.46
2023-03-04T00:57:18.508Z,66.26
2023-03-04T00:59:46.537Z,65.93
2023-03-04T01:02:14.389Z,65.22
2023-03-04T01:04:43.243Z,65.97
2023-03-04T01:07:11.114Z,66.06
2023-03-04T01:09:40.061Z,66.47
2023-03-04T01:12:07.978Z,65.48
2023-03-04T01:14:35.987Z,64.82
2023-03-04T01:17:04.235Z,64.75
2023-03-04T01:19:32.386Z,65.18
2023-03-04T01:22:00.225Z,65.60
2023-03-04T01:24:30.130Z,65.75
2023-03-04T01:26:58.034Z,65.22
2023-03-04T01:29:26.008Z,65.62
2023-03-04T01:31:53.845Z,65.24
2023-03-04T01:34:21.788Z,65.62
2023-03-04T01:36:49.677Z,65.44
2023-03-04T01:39:19.809Z,65.00
2023-03-04T01:41:47.938Z,65.50
2023-03-04T01:44:16.077Z,65.38
2023-03-04T01:46:50.127Z,65.92
2023-03-04T01:49:19.550Z,65.61
2023-03-04T01:51:53.893Z,65.19
2023-03-04T01:54:22.976Z,65.80
2023-03-04T01:56:52.789Z,65.61
2023-03-04T01:59:23.416Z,66.20
2023-03-04T02:01:55.066Z,66.51
2023-03-04T02:04:26.333Z,66.57
2023-03-04T02:06:55.609Z,66.27
2023-03-04T02:09:23.647Z,66.35
2023-03-04T02:11:53.333Z,65.95
2023-03-04T02:14:22.407Z,66.05
2023-03-04T02:16:52.119Z,66.28
2023-03-04T02:19:35.084Z,65.28
2023-03-04T02:22:03.266Z,65.23
2023-03-04T02:24:51.163Z,65.65
2023-03-04T02:27:21.646Z,66.20
2023-03-04T02:29:50.999Z,65.85
2023-03-04T02:32:19.110Z,66.25
2023-03-04T02:34:53.014Z,65.74
2023-03-04T02:37:22.259Z,66.05
2023-03-04T02:39:53.510Z,65.42
2023-03-04T02:42:21.330Z,65.77
2023-03-04T02:44:50.637Z,66.08
2023-03-04T02:47:20.760Z,66.25
2023-03-04T02:49:50.297Z,66.39
2023-03-04T02:52:21.278Z,66.94
2023-03-04T02:54:49.251Z,66.18
2023-03-04T02:57:18.273Z,66.08
2023-03-04T02:59:50.014Z,66.61
2023-03-04T03:02:22.180Z,66.83
2023-03-04T03:04:50.164Z,66.82
2023-03-04T03:07:20.532Z,67.04
2023-03-04T03:09:49.643Z,66.89
2023-03-04T03:12:18.993Z,67.46
2023-03-04T03:14:46.867Z,67.24
2023-03-04T03:17:18.169Z,66.64
2023-03-04T03:19:46.056Z,66.73
2023-03-04T03:22:14.421Z,66.68
2023-03-04T03:24:42.509Z,67.31
2023-03-04T03:27:10.409Z,67.39
2023-03-04T03:29:38.309Z,67.74
2023-03-04T03:32:08.830Z,68.05
2023-03-04T03:34:36.642Z,67.94
2023-03-04T03:37:04.490Z,68.24
2023-03-04T03:39:32.287Z,68.13
2023-03-04T03:42:00.148Z,67.83
2023-03-04T03:44:28.066Z,68.53
2023-03-04T03:46:56.006Z,68.68
2023-03-04T03:49:23.858Z,68.88
2023-03-04T03:51:51.853Z,68.28
2023-03-04T03:54:19.771Z,67.56
2023-03-04T03:56:47.603Z,68.29
2023-03-04T03:59:15.450Z,68.84
2023-03-04T04:01:43.353Z,69.37
2023-03-04T04:04:11.439Z,69.84
2023-03-04T04:06:39.257Z,69.63
2023-03-04T04:09:07.161Z,69.97
2023-03-04T04:11:35.132Z,70.83
2023-03-04T04:14:03.032Z,70.35
2023-03-04T04:16:31.208Z,70.81
2023-03-04T04:18:59.251Z,70.41
2023-03-04T04:21:27.111Z,70.51
2023-03-04T04:23:54.983Z,70.33
2023-03-04T04:26:22.812Z,70.22
2023-03-04T04:28:50.621Z,70.19
2023-03-04T04:31:18.614Z,70.56
2023-03-04T04:33:46.567Z,70.34
2023-03-04T04:36:16.614Z,71.13
2023-03-04T04:38:45.486Z,70.82
2023-03-04T04:41:28.889Z,71.15
2023-03-04T04:43:56.744Z,70.21
2023-03-04T04:46:24.701Z,70.19
2023-03-04T04:48:52.524Z,70.00
2023-03-04T04:51:20.394Z,69.40
2023-03-04T04:53:48.857Z,69.67
2023-03-04T04:56:19.992Z,70.86
2023-03-04T04:58:48.858Z,70.78
2023-03-04T05:03:58.915Z,72.54
2023-03-04T05:06:27.353Z,72.62
2023-03-04T05:08:55.269Z,73.28
2023-03-04T05:11:23.272Z,73.31
2023-03-04T05:13:51.688Z,72.14
2023-03-04T05:16:19.621Z,72.54
2023-03-04T05:18:47.514Z,73.04
2023-03-04T05:21:15.715Z,72.00
2023-03-04T05:23:44.229Z,73.17
2023-03-04T05:26:17.320Z,73.81
2023-03-04T05:28:45.912Z,74.21
2023-03-04T05:31:14.195Z,74.10
2023-03-04T05:33:42.001Z,74.15
2023-03-04T05:36:10.072Z,74.31
2023-03-04T05:38:38.083Z,75.06
2023-03-04T05:41:07.737Z,75.33
2023-03-04T05:43:36.992Z,75.40
2023-03-04T05:46:05.156Z,75.08
2023-03-04T05:48:33.003Z,75.40
2023-03-04T05:51:02.192Z,75.59
2023-03-04T05:53:30.183Z,74.57
2023-03-04T05:56:00.378Z,75.03
2023-03-04T05:58:28.269Z,75.23
2023-03-04T06:01:00.498Z,74.57
2023-03-04T06:03:28.382Z,73.47
2023-03-04T06:05:56.253Z,73.91
2023-03-04T06:08:24.143Z,73.04
2023-03-04T06:10:57.199Z,74.05
2023-03-04T06:13:27.691Z,74.03
2023-03-04T06:15:58.038Z,73.52
2023-03-04T06:18:27.413Z,73.90
2023-03-04T06:21:03.447Z,74.15
2023-03-04T06:23:31.571Z,73.96
2023-03-04T06:26:00.901Z,73.83
2023-03-04T06:28:29.434Z,74.25
2023-03-04T06:30:58.150Z,74.66
2023-03-04T06:33:26.561Z,74.85
2023-03-04T06:35:56.848Z,74.60
2023-03-04T06:38:26.438Z,74.17
2023-03-04T06:40:57.153Z,73.52
2023-03-04T06:43:25.657Z,72.75
2023-03-04T06:45:53.982Z,71.63
2023-03-04T06:48:21.784Z,71.66
2023-03-04T06:50:49.594Z,72.89
2023-03-04T06:53:17.427Z,72.69
2023-03-04T06:55:45.248Z,72.10
2023-03-04T06:58:13.112Z,72.34
2023-03-04T07:00:40.966Z,72.07
2023-03-04T07:03:09.710Z,72.44
2023-03-04T07:05:37.573Z,71.74
2023-03-04T07:08:07.403Z,71.85
2023-03-04T07:10:35.817Z,70.54
2023-03-04T07:13:03.934Z,70.54
2023-03-04T07:15:31.893Z,69.94
2023-03-04T07:17:59.780Z,68.88
2023-03-04T07:20:29.128Z,68.38
2023-03-04T07:22:58.637Z,68.24
2023-03-04T07:25:26.830Z,67.15
2023-03-04T07:27:54.740Z,67.23
2023-03-04T07:30:22.770Z,67.00
2023-03-04T07:32:50.635Z,66.49
2023-03-04T07:35:18.665Z,66.01
2023-03-04T07:37:46.679Z,65.48
2023-03-04T07:40:14.621Z,65.49
2023-03-04T07:42:42.566Z,64.40
2023-03-04T07:45:13.182Z,64.11
2023-03-04T07:47:41.646Z,63.58
2023-03-04T07:50:11.371Z,62.46
2023-03-04T07:52:40.836Z,62.53
2023-03-04T07:55:10.648Z,62.63
2023-03-04T07:57:43.423Z,62.12
2023-03-04T08:00:13.641Z,61.38
2023-03-04T08:02:42.025Z,60.27
2023-03-04T08:05:10.013Z,60.01
2023-03-04T08:07:38.026Z,59.13
2023-03-04T08:10:06.911Z,58.87
2023-03-04T08:12:36.671Z,59.09
2023-03-04T08:15:04.861Z,58.84
2023-03-04T08:17:32.671Z,58.19
2023-03-04T08:20:00.485Z,55.96
2023-03-04T08:22:28.245Z,56.65
2023-03-04T08:24:56.093Z,56.89
2023-03-04T08:27:23.919Z,57.44
2023-03-04T08:29:51.646Z,57.01
2023-03-04T08:32:19.605Z,56.62
2023-03-04T08:34:47.581Z,56.51
2023-03-04T08:37:15.503Z,56.79
2023-03-04T08:39:43.350Z,55.86
2023-03-04T08:42:11.140Z,55.35
2023-03-04T08:44:39.002Z,54.94
2023-03-04T08:47:09.419Z,53.98
2023-03-04T08:49:37.304Z,53.77
2023-03-04T08:52:05.644Z,51.89
2023-03-04T08:54:33.538Z,50.60
2023-03-04T08:57:01.489Z,49.65
2023-03-04T08:59:29.291Z,49.73
2023-03-04T09:01:57.236Z,47.93
2023-03-04T09:04:25.162Z,48.15
2023-03-04T09:06:54.311Z,47.24
2023-03-04T09:09:22.478Z,45.73
2023-03-04T09:11:50.375Z,46.64
2023-03-04T09:14:18.221Z,47.47
2023-03-04T09:16:46.054Z,47.93
2023-03-04T09:19:13.880Z,47.54
2023-03-04T09:21:41.721Z,46.28
2023-03-04T09:24:09.573Z,45.16
2023-03-04T09:26:37.439Z,44.88
2023-03-04T09:29:05.341Z,44.27
2023-03-04T09:31:33.428Z,44.49
2023-03-04T09:34:01.334Z,43.82
2023-03-04T09:36:29.161Z,43.75
2023-03-04T09:39:00.745Z,43.82
2023-03-04T09:41:42.534Z,42.61
2023-03-04T09:44:19.182Z,42.58
2023-03-04T09:46:48.874Z,42.88
2023-03-04T09:49:18.532Z,42.92
2023-03-04T09:51:52.581Z,42.80
2023-03-04T09:54:50.651Z,42.98
2023-03-04T09:57:46.155Z,42.37
2023-03-04T10:00:31.071Z,42.11
2023-03-04T10:03:11.019Z,40.79
2023-03-04T10:05:50.544Z,41.11
2023-03-04T10:08:33.498Z,41.27
2023-03-04T10:11:04.349Z,40.75
2023-03-04T10:13:41.081Z,40.30
2023-03-04T10:16:15.193Z,39.08
2023-03-04T10:18:50.145Z,38.11
2023-03-04T10:21:21.710Z,36.63
2023-03-04T10:23:49.981Z,37.98
2023-03-04T10:26:21.393Z,37.85
2023-03-04T10:28:49.960Z,37.10
2023-03-04T10:31:38.693Z,37.26
2023-03-04T10:34:07.264Z,36.81
2023-03-04T10:36:40.209Z,37.50
2023-03-04T10:39:09.905Z,38.54
2023-03-04T10:41:42.139Z,38.56
2023-03-04T10:44:09.926Z,38.51
2023-03-04T10:46:42.356Z,38.38
2023-03-04T10:49:15.654Z,39.01
2023-03-04T10:51:50.324Z,39.08
2023-03-04T10:54:42.452Z,38.61
2023-03-04T10:57:30.530Z,38.60
2023-03-04T11:00:03.110Z,38.04
2023-03-04T11:02:35.023Z,37.68
2023-03-04T11:05:15.499Z,37.92
2023-03-04T11:07:55.166Z,37.05
2023-03-04T11:10:32.139Z,37.84
2023-03-04T11:13:03.989Z,37.12
2023-03-04T11:15:48.651Z,36.03
2023-03-04T11:18:19.698Z,35.48
2023-03-04T11:20:50.388Z,35.38
2023-03-04T11:23:23.941Z,36.28
2023-03-04T11:26:04.651Z,35.63
2023-03-04T11:28:42.349Z,34.01
2023-03-04T11:31:18.274Z,32.98
2023-03-04T11:34:10.359Z,32.85
2023-03-04T11:37:10.081Z,30.54
2023-03-04T11:39:59.052Z,29.34
2023-03-04T11:42:42.049Z,29.35
2023-03-04T11:45:28.422Z,28.76
2023-03-04T11:48:11.939Z,28.67
2023-03-04T11:51:13.751Z,28.31
2023-03-04T11:53:52.114Z,27.02
2023-03-04T11:56:31.685Z,25.84
2023-03-04T11:59:10.552Z,24.32
2023-03-04T12:02:04.579Z,23.33
2023-03-04T12:04:56.824Z,21.74
2023-03-04T12:07:30.661Z,22.66
2023-03-04T12:10:17.096Z,21.84
2023-03-04T12:13:17.275Z,21.59
2023-03-04T12:16:06.401Z,21.93
2023-03-04T12:18:51.201Z,21.33
2023-03-04T12:22:01.848Z,20.29
2023-03-04T12:25:19.198Z,19.06
2023-03-04T12:28:05.501Z,19.57
2023-03-04T12:31:01.687Z,19.56
2023-03-04T12:34:00.147Z,18.67
2023-03-04T12:37:05.546Z,17.34
2023-03-04T12:39:56.426Z,16.07
2023-03-04T12:42:38.321Z,16.11
2023-03-04T12:45:39.788Z,15.79
2023-03-04T12:48:33.529Z,16.54
2023-03-04T12:51:04.281Z,17.13
2023-03-04T12:54:19.738Z,17.17
2023-03-04T12:57:25.467Z,16.62
2023-03-04T13:00:09.096Z,16.03
2023-03-04T13:02:56.507Z,15.93
2023-03-04T13:05:57.512Z,15.72
2023-03-04T13:08:25.294Z,16.56
2023-03-04T13:10:53.660Z,16.59
2023-03-04T13:13:36.031Z,15.95
2023-03-04T13:16:32.786Z,16.21
2023-03-04T13:19:00.819Z,14.61
2023-03-04T13:21:32.060Z,15.13
2023-03-04T13:24:38.248Z,16.92
2023-03-04T13:27:43.060Z,17.94
2023-03-04T13:30:32.172Z,17.55
2023-03-04T13:33:08.800Z,16.63
2023-03-04T13:35:55.082Z,16.34
2023-03-04T13:38:36.611Z,14.88
2023-03-04T13:41:15.529Z,14.60
2023-03-04T13:43:53.788Z,15.69
2023-03-04T13:46:23.941Z,15.38
2023-03-04T13:48:52.060Z,16.63
2023-03-04T13:51:28.967Z,16.50
2023-03-04T13:54:00.903Z,17.01
2023-03-04T13:56:37.420Z,17.81
2023-03-04T13:59:12.606Z,18.53
2023-03-04T14:01:43.419Z,19.26
2023-03-04T14:04:25.181Z,18.80
2023-03-04T14:06:58.346Z,17.79
2023-03-04T14:09:32.454Z,19.06
2023-03-04T14:12:04.321Z,18.73
2023-03-04T14:14:45.374Z,19.63
2023-03-04T14:17:35.399Z,19.98
2023-03-04T14:20:05.576Z,18.20
2023-03-04T14:22:40.370Z,18.51
2023-03-04T14:25:14.101Z,19.10
2023-03-04T14:27:42.027Z,19.89
2023-03-04T14:30:39.174Z,20.30
2023-03-04T14:33:16.214Z,21.10
2023-03-04T14:35:50.088Z,21.12
2023-03-04T14:38:34.167Z,21.03
2023-03-04T14:41:28.322Z,22.48
2023-03-04T14:44:05.481Z,21.53
2023-03-04T14:46:40.570Z,21.79
2023-03-04T14:49:13.628Z,22.60
2023-03-04T14:51:56.623Z,23.17
2023-03-04T14:54:26.982Z,24.13
2023-03-04T14:56:55.057Z,23.60
2023-03-04T14:59:33.955Z,23.88
2023-03-04T15:02:24.707Z,24.22
2023-03-04T15:04:52.681Z,24.28
2023-03-04T15:07:34.892Z,23.92
2023-03-04T15:10:06.626Z,24.07
2023-03-04T15:12:37.763Z,25.13
2023-03-04T15:15:31.513Z,26.62
2023-03-04T15:18:13.974Z,26.92
2023-03-04T15:20:42.149Z,28.08
2023-03-04T15:23:15.345Z,27.83
2023-03-04T15:25:43.325Z,28.48
2023-03-04T15:28:21.248Z,29.36
2023-03-04T15:30:49.316Z,30.72
2023-03-04T15:33:19.988Z,31.83
2023-03-04T15:35:56.382Z,31.12
2023-03-04T15:38:26.305Z,30.66
2023-03-04T15:40:55.291Z,31.09
2023-03-04T15:43:23.690Z,31.28
2023-03-04T15:45:52.732Z,31.64
2023-03-04T15:48:21.307Z,32.27
2023-03-04T15:50:56.106Z,32.35
2023-03-04T15:53:37.899Z,32.96
2023-03-04T15:56:12.060Z,33.17
2023-03-04T15:58:40.418Z,33.66
2023-03-04T16:01:15.113Z,33.06
2023-03-04T16:03:43.375Z,33.48
2023-03-04T16:06:14.681Z,33.87
2023-03-04T16:08:43.130Z,34.23
2023-03-04T16:11:17.226Z,34.81
2023-03-04T16:13:45.186Z,34.67
2023-03-04T16:16:13.775Z,35.17
2023-03-04T16:18:42.491Z,35.39
2023-03-04T16:21:14.362Z,35.79
2023-03-04T16:23:45.583Z,36.19
2023-03-04T16:26:17.382Z,36.29
2023-03-04T16:28:45.249Z,36.45
2023-03-04T16:31:14.823Z,36.95
2023-03-04T16:33:43.097Z,37.07
2023-03-04T16:36:31.315Z,37.46
2023-03-04T16:39:03.652Z,37.88
2023-03-04T16:41:31.509Z,37.78
2023-03-04T16:44:00.990Z,38.34
2023-03-04T16:46:30.349Z,39.04
2023-03-04T16:48:58.273Z,38.39
2023-03-04T16:51:26.184Z,38.74
2023-03-04T16:53:57.209Z,39.08
2023-03-04T16:56:25.089Z,39.57
2023-03-04T16:58:56.283Z,39.83
2023-03-04T17:01:28.249Z,40.25
2023-03-04T17:03:56.578Z,40.24
2023-03-04T17:06:25.242Z,40.28
2023-03-04T17:08:53.100Z,40.50
2023-03-04T17:11:23.623Z,40.88
2023-03-04T17:13:52.290Z,41.09
2023-03-04T17:16:20.287Z,41.05
2023-03-04T17:18:48.178Z,41.51
2023-03-04T17:21:19.354Z,41.94
2023-03-04T17:23:47.256Z,42.03
2023-03-04T17:26:16.157Z,42.64
2023-03-04T17:28:44.125Z,42.51
2023-03-04T17:31:13.592Z,42.81
2023-03-04T17:33:41.968Z,43.40
2023-03-04T17:36:14.754Z,43.14
2023-03-04T17:38:43.373Z,43.55
2023-03-04T17:41:16.230Z,43.55
2023-03-04T17:43:45.761Z,43.36
2023-03-04T17:46:15.358Z,43.49
2023-03-04T17:48:44.047Z,43.08
2023-03-04T17:51:12.244Z,43.62
2023-03-04T17:53:40.293Z,43.42
2023-03-04T17:56:11.435Z,44.49
2023-03-04T17:58:40.456Z,45.22
2023-03-04T18:01:20.487Z,44.80
2023-03-04T18:03:48.721Z,44.50
2023-03-04T18:06:17.361Z,44.35
2023-03-04T18:08:45.825Z,45.27
2023-03-04T18:11:13.741Z,45.33
2023-03-04T18:13:43.244Z,45.05
2023-03-04T18:16:15.128Z,45.53
2023-03-04T18:18:43.658Z,45.42
2023-03-04T18:21:13.955Z,45.56
2023-03-04T18:23:41.877Z,45.61
2023-03-04T18:26:09.971Z,45.76
2023-03-04T18:28:38.170Z,45.95
2023-03-04T18:31:06.456Z,45.92
2023-03-04T18:33:34.606Z,45.87
2023-03-04T18:36:08.077Z,46.02
2023-03-04T18:38:35.908Z,47.58
2023-03-04T18:41:07.012Z,47.82
2023-03-04T18:43:35.353Z,47.38
2023-03-04T18:46:29.051Z,48.20
2023-03-04T18:48:59.389Z,48.52
2023-03-04T18:51:27.175Z,48.57
2023-03-04T18:53:55.290Z,48.71
2023-03-04T18:56:46.461Z,48.64
2023-03-04T18:59:17.380Z,49.51
2023-03-04T19:01:46.056Z,50.21
2023-03-04T19:04:16.304Z,50.49
2023-03-04T19:06:44.223Z,50.36
2023-03-04T19:09:12.194Z,50.13
2023-03-04T19:11:40.075Z,50.29
2023-03-04T19:14:08.134Z,50.32
2023-03-04T19:16:36.387Z,50.51
2023-03-04T19:19:04.768Z,50.22
2023-03-04T19:21:38.389Z,50.69
2023-03-04T19:24:06.746Z,51.37
2023-03-04T19:26:35.264Z,51.95
2023-03-04T19:29:03.851Z,51.51
2023-03-04T19:31:31.693Z,51.31
2023-03-04T19:33:59.773Z,51.71
2023-03-04T19:36:27.691Z,52.83
2023-03-04T19:38:55.934Z,52.71
2023-03-04T19:41:23.951Z,52.75
2023-03-04T19:43:51.825Z,53.41
2023-03-04T19:46:19.639Z,52.96
2023-03-04T19:48:50.500Z,52.57
2023-03-04T19:51:24.209Z,52.85
2023-03-04T19:53:53.338Z,53.23
2023-03-04T19:56:22.962Z,53.54
2023-03-04T19:58:54.306Z,52.82
2023-03-04T20:01:28.917Z,53.58
2023-03-04T20:04:11.200Z,53.94
2023-03-04T20:06:42.450Z,54.41
2023-03-04T20:09:11.161Z,54.58
2023-03-04T20:11:47.390Z,54.21
2023-03-04T20:14:24.651Z,54.31
2023-03-04T20:16:52.577Z,54.58
2023-03-04T20:19:20.429Z,54.30
2023-03-04T20:21:52.366Z,54.11
2023-03-04T20:24:23.880Z,54.75
2023-03-04T20:26:52.389Z,54.65
2023-03-04T20:29:20.244Z,54.91
2023-03-04T20:31:48.690Z,55.28
2023-03-04T20:34:16.669Z,55.49
2023-03-04T20:36:44.861Z,55.36
2023-03-04T20:39:27.974Z,55.78
2023-03-04T20:41:58.445Z,55.46
2023-03-04T20:44:26.532Z,55.41
2023-03-04T20:46:54.370Z,56.08
2023-03-04T20:49:24.810Z,56.11
2023-03-04T20:52:00.791Z,56.26
2023-03-04T20:54:38.883Z,56.95
2023-03-04T20:57:08.175Z,56.62
2023-03-04T20:59:38.135Z,56.82
2023-03-04T21:02:07.978Z,56.96
2023-03-04T21:04:35.979Z,57.38
2023-03-04T21:07:04.425Z,57.08
2023-03-04T21:09:32.349Z,56.18
2023-03-04T21:12:01.113Z,56.85
2023-03-04T21:14:31.180Z,57.65
2023-03-04T21:17:01.955Z,58.40
2023-03-04T21:19:43.538Z,58.96
2023-03-04T21:22:18.341Z,58.29
2023-03-04T21:24:47.002Z,58.24
2023-03-04T21:27:17.104Z,57.40
2023-03-04T21:29:45.116Z,58.24
2023-03-04T21:32:33.232Z,58.38
2023-03-04T21:35:01.154Z,58.75
2023-03-04T21:37:29.055Z,58.65
2023-03-04T21:39:58.537Z,58.82
2023-03-04T21:42:26.431Z,58.49
2023-03-04T21:44:54.271Z,58.17
2023-03-04T21:47:22.776Z,58.68
2023-03-04T21:49:50.826Z,59.13
2023-03-04T21:52:21.589Z,59.44
2023-03-04T21:54:49.870Z,59.10
2023-03-04T21:57:18.568Z,58.67
2023-03-04T21:59:46.400Z,58.89
2023-03-04T22:02:17.385Z,58.88
2023-03-04T22:04:45.752Z,59.70
2023-03-04T22:07:14.410Z,59.31
2023-03-04T22:09:42.216Z,58.82
2023-03-04T22:12:10.309Z,59.67
2023-03-04T22:14:38.316Z,60.23
2023-03-04T22:17:06.337Z,59.92
2023-03-04T22:19:34.209Z,59.45
2023-03-04T22:22:02.154Z,59.97
2023-03-04T22:24:30.300Z,59.88
2023-03-04T22:27:00.080Z,59.75
2023-03-04T22:29:27.934Z,60.23
2023-03-04T22:31:55.867Z,60.63
2023-03-04T22:34:23.857Z,60.36
2023-03-04T22:36:51.721Z,60.87
2023-03-04T22:39:19.688Z,60.42
2023-03-04T22:41:47.910Z,60.65
2023-03-04T22:44:15.858Z,60.78
2023-03-04T22:46:44.045Z,61.16
2023-03-04T22:49:14.095Z,60.79
2023-03-04T22:51:43.517Z,60.02
2023-03-04T22:54:17.352Z,60.41
2023-03-04T22:56:45.504Z,61.02
2023-03-04T22:59:14.073Z,60.88
2023-03-04T23:01:42.034Z,60.58
2023-03-04T23:04:09.940Z,60.81
2023-03-04T23:06:37.896Z,60.51
2023-03-04T23:09:06.005Z,60.42
2023-03-04T23:11:35.711Z,61.30
2023-03-04T23:14:07.145Z,61.56
2023-03-04T23:16:38.785Z,62.41
2023-03-04T23:19:08.165Z,62.05
2023-03-04T23:21:37.417Z,61.67
2023-03-04T23:24:07.543Z,62.37
2023-03-04T23:26:41.911Z,63.93
2023-03-04T23:29:13.812Z,63.88
2023-03-04T23:31:42.774Z,63.53
2023-03-04T23:34:11.436Z,63.33
2023-03-04T23:36:39.315Z,62.72
2023-03-04T23:39:08.008Z,62.19
2023-03-04T23:41:36.121Z,62.37
2023-03-04T23:44:04.853Z,63.22
2023-03-04T23:46:33.038Z,63.55
2023-03-04T23:49:00.852Z,63.26
2023-03-04T23:51:30.055Z,62.29
2023-03-04T23:53:58.945Z,62.83
2023-03-04T23:56:29.581Z,62.62
2023-03-04T23:58:59.146Z,63.32
